Latest Weather Observations for Adelaide

IDS60801

Issued at 9:01 pm CST Saturday 27 August 2016 (issued every 30 minutes, with the page automatically refreshed every 10 minutes)

About weather observations | Map of weather stations | Latest weather observations for SA | Other Formats
Station Details ID: 023090 Name: KENT TOWN Lat: -34.92 Lon: 138.62 Height: 48.0 m
Data from the previous 72 hours. | See also: Recent months at Adelaide
Date/Time
CST
Temp
°C
App
Temp
°C
Dew
Point
°C
Rel
Hum
%
Delta-T
°C
Wind Press
QNH
hPa
Press
MSL
hPa
Rain since
9am
mm
Dir  Spd
km/h
Gust
km/h
Spd
kts
Gust
kts
27/09:00pm 14.0 11.0 2.1 44 5.2 NE 7 11 4 6 1019.1 1019.2 0.0
27/08:30pm 13.5 11.5 4.3 53 4.2 ENE 4 9 2 5 1019.3 - 0.0
27/08:00pm 13.5 11.0 4.0 52 4.3 ENE 6 9 3 5 1019.3 - 0.0
27/07:30pm 13.7 11.9 3.5 50 4.6 NE 2 7 1 4 1019.2 - 0.0
27/07:00pm 13.8 11.3 3.9 51 4.5 ENE 6 9 3 5 1019.0 - 0.0
27/06:30pm 14.5 13.1 3.5 47 5.0 CALM 0 0 0 0 1018.8 - 0.0
27/06:00pm 15.1 13.6 3.2 45 5.4 CALM 0 0 0 0 1018.8 1018.9 0.0
27/05:30pm 15.8 13.4 2.4 40 6.0 N 4 7 2 4 1018.3 - 0.0
27/05:00pm 16.3 12.9 1.6 37 6.5 NNW 9 15 5 8 1018.4 - 0.0
27/04:30pm 16.8 12.2 -0.7 30 7.4 NW 13 22 7 12 1018.2 - 0.0
27/04:00pm 17.7 12.9 -0.1 30 7.7 NW 15 26 8 14 1018.4 - 0.0
27/03:30pm 17.8 13.7 0.0 30 7.7 NW 11 20 6 11 1018.5 - 0.0
27/03:00pm 17.3 12.3 -1.3 28 7.8 NNW 15 26 8 14 1018.8 1018.9 0.0
27/02:30pm 17.5 12.2 -0.9 28 7.8 NNW 17 24 9 13 1018.8 - 0.0
27/02:00pm 17.8 13.1 -1.5 27 8.1 NNW 13 32 7 17 1019.4 - 0.0
27/01:30pm 16.8 12.0 2.4 38 6.5 NNW 17 32 9 17 1020.0 - 0.0
27/01:00pm 16.9 12.0 2.2 37 6.6 NNW 17 33 9 18 1020.1 - 0.0
27/12:30pm 17.0 11.7 2.1 36 6.7 NNW 19 30 10 16 1020.6 - 0.0
27/12:00pm 15.5 10.5 1.3 38 6.2 NNW 17 33 9 18 1021.3 1021.4 0.0
27/11:30am 15.1 10.2 2.2 41 5.7 NNW 17 24 9 13 1021.9 - 0.0
27/11:00am 16.2 11.7 2.0 38 6.3 NNW 15 26 8 14 1022.2 - 0.0
27/10:30am 14.9 10.8 2.5 43 5.5 N 13 26 7 14 1022.2 - 0.0
27/10:00am 14.2 10.1 2.4 45 5.2 N 13 24 7 13 1022.3 - 0.0
27/09:30am 13.4 9.3 2.1 46 4.9 N 13 22 7 12 1022.7 - 0.0
27/09:00am 12.5 9.2 2.3 50 4.4 NNE 9 15 5 8 1022.9 1023.0 0.0
27/08:30am 11.0 7.7 2.6 56 3.6 NNE 9 15 5 8 1023.1 - 0.0
27/08:00am 8.7 5.8 2.5 65 2.6 NNE 7 15 4 8 1022.8 - 0.0
27/07:30am 6.9 4.1 2.3 72 1.9 NNE 6 11 3 6 1022.6 - 0.0
27/07:00am 4.8 2.0 2.0 82 1.1 NNE 6 11 3 6 1022.5 - 0.0
27/06:30am 4.2 2.2 2.5 89 0.7 ENE 2 7 1 4 1022.3 - 0.0
27/06:00am 4.2 2.6 2.5 89 0.7 CALM 0 0 0 0 1022.1 1022.2 0.0
27/05:30am 4.1 2.5 2.6 90 0.6 CALM 0 0 0 0 1022.1 - 0.0
27/05:00am 4.3 2.8 2.8 90 0.6 CALM 0 0 0 0 1022.2 - 0.0
27/04:30am 4.1 2.5 2.3 88 0.7 CALM 0 0 0 0 1022.3 - 0.0
27/04:00am 4.1 2.5 2.3 88 0.7 CALM 0 0 0 0 1022.2 - 0.0
27/03:30am 4.3 2.7 2.3 87 0.8 CALM 0 0 0 0 1022.4 - 0.0
27/03:00am 4.4 2.8 2.4 87 0.8 CALM 0 0 0 0 1022.6 1022.7 0.0
27/02:30am 4.2 2.6 2.5 89 0.7 CALM 0 0 0 0 1023.0 - 0.0
27/02:00am 4.2 2.6 2.7 90 0.6 CALM 0 0 0 0 1023.1 - 0.0
27/01:30am 4.6 3.1 2.9 89 0.7 CALM 0 0 0 0 1023.2 - 0.0
27/01:00am 4.8 3.3 2.8 87 0.8 CALM 0 0 0 0 1023.1 - 0.0
27/12:30am 5.0 3.5 2.8 86 0.9 CALM 0 0 0 0 1023.3 - 0.0
27/12:00am 5.6 4.1 3.2 84 1.0 CALM 0 0 0 0 1023.4 1023.5 0.0
 
Date/Time
CST
Temp
°C
App
Temp
°C
Dew
Point
°C
Rel
Hum
%
Delta-T
°C
Wind Press
QNH
hPa
Press
MSL
hPa
Rain since
9am
mm
Dir  Spd
km/h
Gust
km/h
Spd
kts
Gust
kts
26/11:30pm 6.0 4.6 3.4 83 1.1 CALM 0 0 0 0 1023.6 - 0.0
26/11:00pm 6.5 5.1 3.4 80 1.3 CALM 0 0 0 0 1024.1 - 0.0
26/10:30pm 6.9 5.5 3.3 78 1.5 CALM 0 0 0 0 1024.2 - 0.0
26/10:00pm 7.2 5.9 3.9 79 1.4 CALM 0 0 0 0 1024.4 - 0.0
26/09:30pm 7.6 6.3 3.9 77 1.6 CALM 0 0 0 0 1024.4 - 0.0
26/09:00pm 8.6 6.8 3.7 71 2.1 E 2 7 1 4 1024.3 1024.4 0.0
26/08:30pm 9.3 7.2 3.8 68 2.4 S 4 11 2 6 1024.4 - 0.0
26/08:00pm 10.4 8.7 3.8 63 2.9 ESE 2 6 1 3 1024.4 - 0.0
26/07:30pm 10.9 9.5 3.6 60 3.2 CALM 0 0 0 0 1024.3 - 0.0
26/07:00pm 11.2 9.7 2.9 56 3.6 CALM 0 6 0 3 1024.2 - 0.0
26/06:30pm 11.6 10.2 3.4 57 3.6 CALM 0 0 0 0 1024.1 - 0.0
26/06:00pm 12.0 9.1 2.5 52 4.1 W 7 13 4 7 1023.8 1023.9 0.0
26/05:30pm 12.3 10.7 2.7 52 4.2 CALM 0 6 0 3 1023.6 - 0.0
26/05:00pm 12.8 10.0 2.2 48 4.6 W 6 15 3 8 1023.6 - 0.0
26/04:30pm 13.4 9.9 1.5 44 5.1 WSW 9 13 5 7 1023.2 - 0.0
26/04:00pm 13.8 10.4 2.1 45 5.1 WSW 9 19 5 10 1023.2 - 0.0
26/03:30pm 13.7 10.9 2.0 45 5.1 SE 6 9 3 5 1023.3 - 0.0
26/03:00pm 13.3 10.0 2.3 47 4.8 WNW 9 20 5 11 1023.5 1023.6 0.0
26/02:30pm 13.0 9.8 2.8 50 4.5 SW 9 15 5 8 1023.7 - 0.0
26/02:00pm 12.9 10.1 3.2 51 4.3 W 7 13 4 7 1023.9 - 0.0
26/01:30pm 12.5 9.2 2.6 51 4.3 WSW 9 19 5 10 1024.1 - 0.0
26/01:00pm 12.5 9.6 2.6 51 4.3 SW 7 11 4 6 1024.4 - 0.0
26/12:30pm 12.2 9.3 2.5 51 4.2 WNW 7 13 4 7 1024.7 - 0.0
26/12:00pm 12.3 9.6 3.8 56 3.8 W 7 13 4 7 1025.0 1025.1 0.0
26/11:30am 12.4 9.4 2.2 50 4.4 W 7 15 4 8 1025.3 - 0.0
26/11:00am 12.9 10.0 4.6 57 3.8 W 9 15 5 8 1025.7 - 0.0
26/10:30am 11.9 9.7 6.1 67 2.7 NW 7 13 4 7 1025.9 - 0.0
26/10:00am 10.9 8.7 6.2 73 2.2 N 7 11 4 6 1025.7 - 0.0
26/09:30am 9.9 7.6 5.7 75 1.9 NE 7 9 4 5 1025.9 - 0.0
26/09:00am 9.3 7.9 5.5 77 1.7 ENE 2 9 1 5 1026.0 1026.1 0.0
26/08:30am 8.6 6.9 5.7 82 1.3 NE 4 9 2 5 1025.8 - 0.0
26/08:00am 8.0 6.9 5.3 83 1.2 CALM 0 0 0 0 1025.8 - 0.0
26/07:30am 7.4 6.3 5.1 85 1.0 CALM 0 0 0 0 1025.4 - 0.0
26/07:00am 7.0 5.2 5.2 88 0.8 NNE 4 9 2 5 1025.1 - 0.0
26/06:30am 6.6 5.5 5.0 89 0.7 CALM 0 0 0 0 1024.7 - 0.0
26/06:00am 6.0 4.8 4.8 92 0.5 CALM 0 6 0 3 1024.2 1024.3 0.0
26/05:30am 6.0 4.9 5.1 94 0.4 CALM 0 0 0 0 1023.9 - 0.0
26/05:00am 6.0 4.8 4.8 92 0.5 CALM 0 0 0 0 1023.7 - 0.0
26/04:30am 6.5 5.4 5.1 91 0.6 CALM 0 0 0 0 1023.5 - 0.0
26/04:00am 7.0 6.0 5.4 89 0.7 CALM 0 0 0 0 1023.4 - 0.0
26/03:30am 7.2 6.2 5.4 88 0.8 CALM 0 0 0 0 1023.5 - 0.0
26/03:00am 7.8 6.8 5.8 87 0.9 CALM 0 0 0 0 1023.5 1023.6 0.0
26/02:30am 7.8 6.8 5.6 86 1.0 CALM 0 0 0 0 1023.7 - 0.0
26/02:00am 7.6 6.6 5.6 87 0.9 CALM 0 6 0 3 1023.7 - 0.0
26/01:30am 7.5 6.5 5.7 88 0.8 CALM 0 0 0 0 1023.7 - 0.0
26/01:00am 7.4 6.4 5.6 88 0.8 CALM 0 0 0 0 1023.7 - 0.0
26/12:30am 7.2 6.2 5.6 89 0.7 CALM 0 0 0 0 1023.6 - 0.0
26/12:00am 7.4 6.4 5.8 90 0.7 CALM 0 0 0 0 1023.5 1023.6 0.0
 
Date/Time
CST
Temp
°C
App
Temp
°C
Dew
Point
°C
Rel
Hum
%
Delta-T
°C
Wind Press
QNH
hPa
Press
MSL
hPa
Rain since
9am
mm
Dir  Spd
km/h
Gust
km/h
Spd
kts
Gust
kts
25/11:30pm 7.9 7.0 5.9 87 0.9 CALM 0 0 0 0 1023.5 - 0.0
25/11:00pm 8.4 6.7 6.0 85 1.1 SSE 4 7 2 4 1023.4 - 0.0
25/10:30pm 8.2 6.6 6.2 87 0.9 W 4 7 2 4 1023.5 - 0.0
25/10:00pm 8.6 7.8 6.4 86 1.0 CALM 0 0 0 0 1023.3 - 0.0
25/09:30pm 9.2 8.4 6.6 84 1.2 CALM 0 0 0 0 1023.2 - 0.0
25/09:00pm 9.9 8.4 6.7 80 1.5 SSW 4 7 2 4 1023.2 1023.3 0.0
25/08:30pm 10.2 8.1 6.8 79 1.6 S 7 9 4 5 1023.0 - 0.0
25/08:00pm 10.2 8.5 7.7 84 1.2 SSW 6 9 3 5 1022.7 - 0.0
25/07:30pm 10.8 8.9 7.7 81 1.5 SW 7 15 4 8 1022.4 - 0.0
25/07:00pm 11.3 9.3 7.1 75 2.0 SSW 7 11 4 6 1022.2 - 0.0
25/06:30pm 11.2 9.2 6.3 72 2.3 SSW 6 11 3 6 1021.9 - 0.0
25/06:00pm 11.7 9.4 5.9 67 2.7 SSW 7 11 4 6 1021.6 1021.7 0.0
25/05:30pm 12.3 9.5 5.1 61 3.3 S 9 17 5 9 1021.3 - 0.0
25/05:00pm 12.8 9.3 5.5 61 3.4 SSW 13 20 7 11 1021.0 - 0.0
25/04:30pm 13.8 9.1 5.0 55 4.1 WSW 19 32 10 17 1020.7 - 0.0
25/04:00pm 14.5 9.8 5.1 53 4.4 WSW 19 26 10 14 1020.3 - 0.0
25/03:30pm 14.7 10.4 5.1 52 4.5 WSW 17 26 9 14 1020.1 - 0.0
25/03:00pm 14.8 10.9 5.5 53 4.4 SW 15 24 8 13 1019.9 1020.0 0.0
25/02:30pm 14.4 10.0 4.7 52 4.5 WSW 17 24 9 13 1020.1 - 0.0
25/02:00pm 14.8 10.7 4.4 49 4.8 WSW 15 24 8 13 1019.9 - 0.0
25/01:30pm 15.2 11.3 5.3 51 4.7 WSW 15 20 8 11 1020.0 - 0.0
25/01:00pm 14.8 10.6 5.5 53 4.4 WSW 17 24 9 13 1020.2 - 0.0
25/12:30pm 14.4 10.3 4.4 51 4.6 SW 15 24 8 13 1020.5 - 0.0
25/12:00pm 14.7 10.7 4.8 51 4.6 WSW 15 26 8 14 1020.7 1020.8 0.0
25/11:30am 14.9 12.0 4.8 51 4.7 WSW 9 19 5 10 1020.7 - 0.0
25/11:00am 14.1 11.2 4.8 53 4.3 W 9 15 5 8 1020.8 - 0.0
25/10:30am 13.2 10.8 4.2 54 4.1 SW 6 11 3 6 1020.9 - 0.0
25/10:00am 13.0 10.6 4.2 55 4.0 W 6 13 3 7 1020.9 - 0.0
25/09:30am 12.1 10.0 4.1 58 3.6 NW 4 9 2 5 1020.6 - 0.0
25/09:00am 10.6 8.9 4.1 64 2.9 N 2 6 1 3 1020.5 1020.6 0.0
25/08:30am 8.9 7.5 3.6 69 2.3 CALM 0 0 0 0 1020.3 - 0.0
25/08:00am 5.8 4.4 3.4 84 1.0 CALM 0 0 0 0 1020.0 - 0.0
25/07:30am 4.6 3.1 3.1 90 0.6 CALM 0 0 0 0 1019.7 - 0.0
25/07:00am 4.0 2.5 2.8 92 0.5 CALM 0 0 0 0 1019.3 - 0.0
25/06:30am 4.2 2.6 2.7 90 0.6 CALM 0 0 0 0 1019.1 - 0.0
25/06:00am 4.5 3.0 3.0 90 0.6 CALM 0 0 0 0 1018.8 1018.9 0.0
25/05:30am 4.8 3.3 2.8 87 0.8 CALM 0 0 0 0 1018.3 - 0.0
25/05:00am 5.0 3.5 2.8 86 0.9 CALM 0 0 0 0 1018.0 - 0.0
25/04:30am 5.6 3.7 2.9 83 1.1 NE 2 7 1 4 1017.9 - 0.0
25/04:00am 6.7 4.0 2.9 77 1.6 N 6 9 3 5 1017.5 - 0.0
25/03:30am 7.1 4.4 2.8 74 1.8 NW 6 7 3 4 1017.4 - 0.0
25/03:00am 7.1 5.2 3.1 76 1.7 WNW 2 6 1 3 1017.3 1017.4 0.0
25/02:30am 7.4 5.9 2.9 73 1.9 CALM 0 7 0 4 1017.1 - 0.0
25/02:00am 7.7 5.4 3.0 72 2.0 N 4 9 2 5 1017.1 - 0.0
25/01:30am 8.4 6.8 2.7 67 2.4 CALM 0 6 0 3 1017.1 - 0.0
25/01:00am 9.2 6.2 2.3 62 2.9 ESE 7 15 4 8 1017.1 - 0.0
25/12:30am 9.5 7.1 2.4 61 3.0 SE 4 13 2 7 1017.1 - 0.0
25/12:00am 9.1 7.2 3.0 65 2.6 E 2 9 1 5 1017.1 1017.2 0.0
 
Date/Time
CST
Temp
°C
App
Temp
°C
Dew
Point
°C
Rel
Hum
%
Delta-T
°C
Wind Press
QNH
hPa
Press
MSL
hPa
Rain since
9am
mm
Dir  Spd
km/h
Gust
km/h
Spd
kts
Gust
kts
24/11:30pm 8.8 6.6 3.2 68 2.4 SW 4 9 2 5 1017.2 - 0.0
24/11:00pm 9.5 7.5 2.4 61 3.0 SSE 2 9 1 5 1017.1 - 0.0
24/10:30pm 9.6 7.6 2.3 60 3.1 ENE 2 9 1 5 1017.3 - 0.0
24/10:00pm 10.0 7.1 1.3 54 3.6 ESE 6 17 3 9 1017.3 - 0.0
24/09:30pm 9.9 6.8 0.2 51 3.9 SE 6 9 3 5 1017.2 - 0.0

Other Formats:

Comma delimited format used in spreadsheet applications
http://www.bom.gov.au/fwo/IDS60801/IDS60801.94675.axf

JavaScript Object Notation format (JSON) in row-major order
http://www.bom.gov.au/fwo/IDS60801/IDS60801.94675.json